Nearby METAR Reports

 

YSCB - Canberra (civ/Mi, Australia
Distance from station: NNW 6km
Updated: Sun, 24-Sep-2017 1:02pm AEST
Partly cloudy
Partly cloudy
 Wind from WNW
Wind: WNW 39 km/h, Gust: 57 km/h
Temperature: 20°C
Dew Point: 1°C
Humidity: 28%
Barometer: 1003 hPa
Clouds: Partly cloudy
Visibility: 10 km
Cloud details: Partly cloudy 1676 m
2017/09/24 03:02 YSCB 240302Z 30021G31KT 9999 SCT055 20/01 Q1003
YCOM - Cooma Snowy Mtns, Australia
Distance from station: S 110km
Updated: Sun, 24-Sep-2017 1:00pm AEST
Partly cloudy
Partly cloudy
 Wind from W
Wind: W 39 km/h, Gust: 70 km/h
Temperature: 14°C
Dew Point: 0°C
Humidity: 39%
Barometer: 1002 hPa
Clouds: Partly cloudy
Visibility: 10 km
Cloud details: Partly cloudy 1768 m
2017/09/24 03:00 YCOM 240300Z AUTO 28021G38KT 9999 // SCT058 14/M00 Q1002
 
YSNW - Nowra (aus-Navy), Australia
Distance from station: ENE 127km
Updated: Sun, 24-Sep-2017 1:00pm AEST
Partly cloudy
Partly cloudy
 Wind from NW
Wind: NW 37 km/h, Gust: 61 km/h
Temperature: 23°C
Dew Point: -5°C
Humidity: 15%
Barometer: 1001 hPa
Clouds: Partly cloudy
Visibility: 10 km
Cloud details: Partly cloudy 3810 m
2017/09/24 03:00 YSNW 240300Z AUTO 31020G33KT 9999 // SCT125 23/M05 Q1001
YSWG - Wagga Wagga(Cv/M, Australia
Distance from station: W 159km
Updated: Sun, 24-Sep-2017 1:00pm AEST
Partly cloudy
Partly cloudy
 Wind from WNW
Wind: WNW 39 km/h, Gust: 57 km/h
Temperature: 22°C
Dew Point: 2°C
Humidity: 27%
Barometer: 1003 hPa
Clouds: Partly cloudy
Visibility: 10 km
Cloud details: Partly cloudy 2743 m
2017/09/24 03:00 YSWG 240300Z AUTO 29021G31KT 9999 // SCT090 22/02 Q1003
 
YMER - Merimbula Arpt, Australia
Distance from station: SSE 187km
Updated: Sun, 24-Sep-2017 1:00pm AEST
Clear
Clear
 Wind from WNW
Wind: WNW 31 km/h, Gust: 54 km/h
Temperature: 25°C
Dew Point: 1°C
Humidity: 21%
Barometer: 997 hPa
Clouds: Clear
Visibility: 10 km
2017/09/24 03:00 YMER 240300Z AUTO 29017G29KT 9999 // NCD 25/01 Q0997
YMAY - Albury Airport, Australia
Distance from station: WSW 220km
Updated: Sun, 24-Sep-2017 1:00pm AEST
Partly cloudy
Partly cloudy
 Wind from WNW
Wind: WNW 30 km/h
Temperature: 19°C
Dew Point: 6°C
Humidity: 43%
Barometer: 1002 hPa
Clouds: Partly cloudy
Visibility: 10 km
Cloud details: Partly cloudy 2012 m
Partly cloudy 2469 m
2017/09/24 03:00 YMAY 240300Z AUTO 30016KT 9999 // SCT066 SCT081 19/06 Q1002
 
YSSY - Sydney Intl Airp, Australia
Distance from station: NE 236km
Updated: Sun, 24-Sep-2017 1:00pm AEST
Clear
Clear
 Wind from WNW
Wind: WNW 35 km/h, Gust: 54 km/h
Temperature: 29°C
Dew Point: 0°C
Humidity: 15%
Barometer: 1002 hPa
Summary: Clear
Visibility: greater than 10 km
2017/09/24 03:00 YSSY 240300Z 30019G29KT CAVOK 29/M00 Q1002 FM0300 MOD/SEV TURB BLW 5000FT
YSRI - Richmond (aus-Af, Australia
Distance from station: NE 240km
Updated: Sun, 24-Sep-2017 1:00pm AEST
Clear
Clear
 Wind from W
Wind: W 35 km/h
Temperature: 29°C
Dew Point: 4°C
Humidity: 20%
Barometer: 1002 hPa
Clouds: Clear
Visibility: 10 km
2017/09/24 03:00 YSRI 240300Z AUTO 28019KT 9999 // NCD 29/04 Q1002
 
YNAR - Narrandera, Australia
Distance from station: WNW 254km
Updated: Sun, 24-Sep-2017 1:00pm AEST

 Wind from WNW
Wind: WNW 39 km/h, Gust: 59 km/h
Temperature: 25°C
Dew Point: 1°C
Humidity: 21%
Barometer: 1004 hPa
2017/09/24 03:00 YNAR 240300Z AUTO 29021G32KT //// // ////// 25/01 Q1004
YWGT - Wangaratta Arp, Australia
Distance from station: WSW 288km
Updated: Sun, 24-Sep-2017 1:00pm AEST
Partly cloudy
Partly cloudy
 Wind from NW
Wind: NW 31 km/h
Temperature: 19°C
Dew Point: 6°C
Humidity: 43%
Barometer: 1002 hPa
Clouds: Partly cloudy
Visibility: 10 km
Cloud details: Partly cloudy 1676 m
2017/09/24 03:00 YWGT 240300Z AUTO 31017KT 9999 // SCT055 19/06 Q1002